createdAt,value
2022-08-17T00:00:34.834Z,95456.31
2022-08-17T00:03:08.325Z,95439.00
2022-08-17T00:05:43.664Z,95312.59
2022-08-17T00:08:11.657Z,95414.81
2022-08-17T00:10:40.153Z,95435.34
2022-08-17T00:13:09.727Z,95441.28
2022-08-17T00:15:37.626Z,95269.97
2022-08-17T00:18:53.778Z,95263.53
2022-08-17T00:20:57.422Z,95409.28
2022-08-17T00:23:25.510Z,95410.06
2022-08-17T00:25:53.940Z,95418.41
2022-08-17T00:28:22.066Z,95405.97
2022-08-17T00:30:53.426Z,95371.63
2022-08-17T00:33:28.268Z,95391.44
2022-08-17T00:35:57.474Z,95406.22
2022-08-17T00:38:26.391Z,95411.19
2022-08-17T00:40:59.045Z,95415.09
2022-08-17T00:43:33.716Z,95408.88
2022-08-17T00:46:04.605Z,95412.22
2022-08-17T00:48:34.395Z,95333.88
2022-08-17T00:51:14.378Z,95400.22
2022-08-17T00:53:46.266Z,95411.34
2022-08-17T00:56:18.497Z,95403.16
2022-08-17T00:58:46.186Z,95295.50
2022-08-17T01:01:21.860Z,95367.63
2022-08-17T01:03:52.647Z,95401.56
2022-08-17T01:06:24.193Z,95386.28
2022-08-17T01:08:57.716Z,95305.84
2022-08-17T01:11:26.341Z,95324.25
2022-08-17T01:13:54.756Z,95385.59
2022-08-17T01:16:25.761Z,95410.03
2022-08-17T01:18:57.862Z,95378.50
2022-08-17T01:21:32.795Z,95380.16
2022-08-17T01:24:02.588Z,95326.16
2022-08-17T01:26:33.282Z,95298.41
2022-08-17T01:29:02.359Z,95384.50
2022-08-17T01:31:36.751Z,95392.25
2022-08-17T01:34:08.049Z,95401.94
2022-08-17T01:36:36.538Z,95402.72
2022-08-17T01:39:07.364Z,95395.72
2022-08-17T01:41:36.030Z,95394.06
2022-08-17T01:44:06.483Z,95281.28
2022-08-17T01:46:36.913Z,95387.28
2022-08-17T01:49:07.256Z,95387.59
2022-08-17T01:51:35.538Z,95396.47
2022-08-17T01:54:07.813Z,95317.03
2022-08-17T01:56:38.347Z,95400.25
2022-08-17T01:59:06.375Z,95394.50
2022-08-17T02:01:35.298Z,95385.63
2022-08-17T02:04:04.135Z,95382.50
2022-08-17T02:06:44.908Z,95379.94
2022-08-17T02:09:16.449Z,95255.59
2022-08-17T02:11:46.256Z,95397.81
2022-08-17T02:14:14.555Z,95387.16
2022-08-17T02:16:44.255Z,95388.59
2022-08-17T02:19:14.680Z,95389.16
2022-08-17T02:21:43.917Z,95368.53
2022-08-17T02:24:16.970Z,95394.38
2022-08-17T02:26:46.224Z,95391.81
2022-08-17T02:29:14.581Z,95385.94
2022-08-17T02:31:42.744Z,95379.72
2022-08-17T02:34:10.710Z,95373.59
2022-08-17T02:36:39.005Z,95374.16
2022-08-17T02:39:09.690Z,95373.63
2022-08-17T02:41:39.718Z,95358.19
2022-08-17T02:44:08.637Z,95350.31
2022-08-17T02:46:36.979Z,95369.06
2022-08-17T02:49:05.755Z,95354.63
2022-08-17T02:51:35.216Z,95302.03
2022-08-17T02:54:40.030Z,95279.13
2022-08-17T02:56:52.129Z,95356.84
2022-08-17T02:59:19.853Z,95349.19
2022-08-17T03:01:47.509Z,95345.41
2022-08-17T03:04:15.307Z,95344.44
2022-08-17T03:06:42.975Z,95338.09
2022-08-17T03:09:10.614Z,95338.56
2022-08-17T03:11:38.251Z,95339.09
2022-08-17T03:14:07.198Z,95338.97
2022-08-17T03:16:34.874Z,95337.44
2022-08-17T03:19:04.149Z,95343.88
2022-08-17T03:21:31.832Z,95263.72
2022-08-17T03:23:59.484Z,95339.44
2022-08-17T03:26:29.745Z,95345.88
2022-08-17T03:28:58.307Z,95343.22
2022-08-17T03:31:27.309Z,95348.06
2022-08-17T03:33:54.955Z,95343.53
2022-08-17T03:36:22.593Z,95355.41
2022-08-17T03:38:50.298Z,95349.63
2022-08-17T03:55:40.700Z,95301.22
2022-08-17T03:58:08.391Z,95353.59
2022-08-17T04:00:36.822Z,95372.13
2022-08-17T04:03:07.471Z,95377.13
2022-08-17T04:05:38.425Z,95335.50
2022-08-17T04:08:07.800Z,95372.81
2022-08-17T04:10:38.452Z,95353.00
2022-08-17T04:13:12.778Z,95376.13
2022-08-17T04:15:40.566Z,95378.69
2022-08-17T04:18:08.354Z,95383.31
2022-08-17T04:20:40.080Z,95384.09
2022-08-17T04:23:11.602Z,95365.59
2022-08-17T04:25:42.585Z,95381.56
2022-08-17T04:28:16.159Z,95367.22
2022-08-17T04:30:45.943Z,95330.81
2022-08-17T04:33:15.648Z,95373.44
2022-08-17T04:35:47.829Z,95368.44
2022-08-17T04:38:17.804Z,95371.66
2022-08-17T04:41:03.618Z,95373.84
2022-08-17T04:43:32.860Z,95367.75
2022-08-17T04:46:02.776Z,95364.78
2022-08-17T04:48:36.532Z,95368.22
2022-08-17T04:51:09.761Z,95344.59
2022-08-17T04:53:38.338Z,95356.16
2022-08-17T04:56:06.475Z,95356.94
2022-08-17T04:58:34.347Z,95362.25
2022-08-17T05:01:02.461Z,95342.72
2022-08-17T05:03:30.472Z,95357.94
2022-08-17T05:05:58.095Z,95344.75
2022-08-17T05:08:27.187Z,95353.28
2022-08-17T05:10:54.975Z,95365.84
2022-08-17T05:13:25.331Z,95363.72
2022-08-17T05:15:56.019Z,95373.16
2022-08-17T05:18:24.563Z,95366.41
2022-08-17T05:20:53.467Z,95375.84
2022-08-17T05:23:22.962Z,95373.84
2022-08-17T05:25:54.629Z,95382.16
2022-08-17T05:28:26.705Z,95384.94
2022-08-17T05:30:56.953Z,95367.97
2022-08-17T05:33:27.131Z,95398.94
2022-08-17T05:35:57.459Z,95394.13
2022-08-17T05:38:26.605Z,95404.69
2022-08-17T05:40:56.666Z,95385.91
2022-08-17T05:43:26.124Z,95391.34
2022-08-17T05:46:01.254Z,95356.25
2022-08-17T05:48:35.591Z,95389.06
2022-08-17T05:51:33.090Z,95388.81
2022-08-17T05:54:16.478Z,95397.91
2022-08-17T05:57:04.112Z,95381.31
2022-08-17T05:59:41.812Z,95363.25
2022-08-17T06:02:19.677Z,95333.72
2022-08-17T06:05:06.563Z,95374.16
2022-08-17T06:07:42.509Z,95395.94
2022-08-17T06:10:15.222Z,95393.69
2022-08-17T06:13:03.406Z,95388.00
2022-08-17T06:15:37.779Z,95415.13
2022-08-17T06:18:09.069Z,95419.59
2022-08-17T06:20:49.910Z,95427.44
2022-08-17T06:23:27.541Z,95423.41
2022-08-17T06:26:03.678Z,95419.75
2022-08-17T06:28:39.974Z,95337.47
2022-08-17T06:31:13.940Z,95426.75
2022-08-17T06:33:47.426Z,95418.84
2022-08-17T06:36:31.474Z,95426.34
2022-08-17T06:39:14.625Z,95426.00
2022-08-17T06:41:50.400Z,95430.34
2022-08-17T06:44:42.189Z,95442.31
2022-08-17T06:47:28.814Z,95443.31
2022-08-17T06:50:05.973Z,95432.34
2022-08-17T06:52:46.861Z,95439.31
2022-08-17T06:55:21.136Z,95426.31
2022-08-17T06:57:52.647Z,95419.31
2022-08-17T07:00:24.835Z,95446.31
2022-08-17T07:02:58.698Z,95449.13
2022-08-17T07:05:29.264Z,95460.00
2022-08-17T07:08:03.744Z,95463.22
2022-08-17T07:10:38.847Z,95460.91
2022-08-17T07:13:31.863Z,95470.50
2022-08-17T07:16:14.648Z,95467.97
2022-08-17T07:18:43.734Z,95470.53
2022-08-17T07:21:26.470Z,95456.44
2022-08-17T07:24:07.952Z,95468.63
2022-08-17T07:26:35.652Z,95459.59
2022-08-17T07:29:03.544Z,95458.69
2022-08-17T07:31:33.655Z,95467.25
2022-08-17T07:34:07.900Z,95478.22
2022-08-17T07:36:35.783Z,95483.13
2022-08-17T07:39:05.035Z,95470.47
2022-08-17T07:41:53.454Z,95459.53
2022-08-17T07:44:25.691Z,95481.91
2022-08-17T07:47:13.153Z,95465.25
2022-08-17T07:49:42.414Z,95494.38
2022-08-17T07:52:48.173Z,95487.50
2022-08-17T07:55:00.505Z,95486.97
2022-08-17T07:57:36.821Z,95477.31
2022-08-17T08:00:16.269Z,95488.00
2022-08-17T08:02:59.562Z,95486.44
2022-08-17T08:05:49.927Z,95459.97
2022-08-17T08:08:28.471Z,95491.19
2022-08-17T08:11:03.451Z,95481.88
2022-08-17T08:13:32.465Z,95484.25
2022-08-17T08:16:24.357Z,95488.91
2022-08-17T08:18:57.603Z,95481.19
2022-08-17T08:21:37.517Z,95489.25
2022-08-17T08:24:26.360Z,95477.19
2022-08-17T08:27:08.089Z,95423.09
2022-08-17T08:30:09.961Z,95460.88
2022-08-17T08:32:54.024Z,95475.09
2022-08-17T08:35:32.365Z,95476.25
2022-08-17T08:38:08.453Z,95486.63
2022-08-17T08:41:02.339Z,95494.22
2022-08-17T08:43:36.091Z,95479.56
2022-08-17T08:46:19.819Z,95476.13
2022-08-17T08:49:18.185Z,95478.84
2022-08-17T08:51:55.338Z,95474.59
2022-08-17T08:54:35.016Z,95464.75
2022-08-17T08:57:26.901Z,95462.44
2022-08-17T09:00:12.740Z,95460.50
2022-08-17T09:03:08.373Z,95468.22
2022-08-17T09:06:02.909Z,95457.44
2022-08-17T09:08:45.058Z,95426.59
2022-08-17T09:13:54.132Z,95464.78
2022-08-17T09:16:30.375Z,95441.66
2022-08-17T09:19:04.611Z,95453.22
2022-08-17T09:21:47.951Z,95477.94
2022-08-17T09:24:25.901Z,95438.22
2022-08-17T09:26:58.846Z,95476.41
2022-08-17T09:29:32.372Z,95472.19
2022-08-17T09:32:03.760Z,95475.69
2022-08-17T09:34:36.029Z,95457.97
2022-08-17T09:37:17.008Z,95354.69
2022-08-17T09:39:52.390Z,95450.34
2022-08-17T09:42:26.923Z,95464.22
2022-08-17T09:45:03.830Z,95399.06
2022-08-17T09:47:36.819Z,95449.56
2022-08-17T09:50:09.162Z,95460.75
2022-08-17T09:52:36.859Z,95445.72
2022-08-17T09:55:07.496Z,95354.75
2022-08-17T09:57:51.378Z,95364.44
2022-08-17T10:00:25.502Z,95464.59
2022-08-17T10:03:09.646Z,95402.94
2022-08-17T10:05:46.561Z,95449.56
2022-08-17T10:08:25.543Z,95423.34
2022-08-17T10:11:06.940Z,95348.59
2022-08-17T10:13:52.834Z,95462.59
2022-08-17T10:16:27.477Z,95419.44
2022-08-17T10:19:04.675Z,95331.94
2022-08-17T10:22:01.050Z,95446.31
2022-08-17T10:25:21.129Z,95421.25
2022-08-17T10:27:48.616Z,95458.94
2022-08-17T10:30:19.616Z,95452.31
2022-08-17T10:32:52.276Z,95428.44
2022-08-17T10:35:33.956Z,95450.63
2022-08-17T10:38:36.475Z,95456.00
2022-08-17T10:41:17.517Z,95449.72
2022-08-17T10:44:39.013Z,95451.59
2022-08-17T10:47:07.337Z,95456.88
2022-08-17T10:49:37.109Z,95374.97
2022-08-17T10:52:37.957Z,95411.97
2022-08-17T10:55:14.068Z,95434.25
2022-08-17T10:57:44.744Z,95433.78
2022-08-17T11:00:58.052Z,95457.75
2022-08-17T11:03:27.589Z,95449.03
2022-08-17T11:06:04.739Z,95453.59
2022-08-17T11:09:11.606Z,95464.94
2022-08-17T11:11:49.924Z,95460.09
2022-08-17T11:14:34.825Z,95472.16
2022-08-17T11:17:22.552Z,95464.91
2022-08-17T11:20:21.071Z,95472.72
2022-08-17T11:23:19.629Z,95459.53
2022-08-17T11:25:52.565Z,95449.66
2022-08-17T11:28:24.631Z,95454.28
2022-08-17T11:30:55.035Z,95448.72
2022-08-17T11:34:05.590Z,95445.47
2022-08-17T11:37:01.726Z,95433.38
2022-08-17T11:39:56.710Z,95460.16
2022-08-17T11:42:36.230Z,95447.09
2022-08-17T11:45:31.755Z,95433.81
2022-08-17T11:48:28.234Z,95443.59
2022-08-17T11:51:18.792Z,95430.00
2022-08-17T11:54:34.471Z,95445.22
2022-08-17T11:57:42.437Z,95456.44
2022-08-17T12:00:54.726Z,95452.38
2022-08-17T12:03:42.438Z,95465.22
2022-08-17T12:06:31.988Z,95464.44
2022-08-17T12:09:07.743Z,95458.84
2022-08-17T12:11:55.488Z,95461.63
2022-08-17T12:15:08.380Z,95457.09
2022-08-17T12:17:40.251Z,95459.41
2022-08-17T12:20:15.023Z,95452.13
2022-08-17T12:22:54.806Z,95428.88
2022-08-17T12:25:33.024Z,95449.13
2022-08-17T12:28:06.539Z,95446.50
2022-08-17T12:30:37.714Z,95452.78
2022-08-17T12:33:28.071Z,95442.88
2022-08-17T12:35:59.997Z,95442.28
2022-08-17T12:38:33.065Z,95437.66
2022-08-17T12:41:23.299Z,95433.00
2022-08-17T12:44:02.503Z,95428.94
2022-08-17T12:46:35.685Z,95423.50
2022-08-17T12:49:22.244Z,95393.84
2022-08-17T12:51:50.935Z,95419.28
2022-08-17T12:54:30.401Z,95406.22
2022-08-17T12:57:02.109Z,95360.28
2022-08-17T12:59:33.172Z,95382.50
2022-08-17T13:02:02.404Z,95392.94
2022-08-17T13:04:30.170Z,95405.44
2022-08-17T13:06:59.726Z,95424.28
2022-08-17T13:09:35.532Z,95336.00
2022-08-17T13:12:08.386Z,95415.69
2022-08-17T13:14:36.426Z,95293.22
2022-08-17T13:17:11.048Z,95407.91
2022-08-17T13:19:50.488Z,95413.44
2022-08-17T13:22:23.107Z,95398.03
2022-08-17T13:24:54.444Z,95404.94
2022-08-17T13:27:25.210Z,95405.28
2022-08-17T13:29:55.812Z,95389.13
2022-08-17T13:32:35.853Z,95380.06
2022-08-17T13:35:39.502Z,95416.53
2022-08-17T13:38:09.747Z,95406.47
2022-08-17T13:40:42.070Z,95406.84
2022-08-17T13:43:11.173Z,95406.31
2022-08-17T13:45:50.285Z,95412.50
2022-08-17T13:48:27.631Z,95410.25
2022-08-17T13:51:13.932Z,95401.88
2022-08-17T13:53:55.842Z,95384.03
2022-08-17T13:56:38.452Z,95395.75
2022-08-17T13:59:11.030Z,95371.91
2022-08-17T14:01:53.939Z,95403.97
2022-08-17T14:04:24.712Z,95374.06
2022-08-17T14:06:57.720Z,95395.41
2022-08-17T14:09:31.425Z,95379.47
2022-08-17T14:12:04.034Z,95357.00
2022-08-17T14:14:31.999Z,95340.16
2022-08-17T14:16:59.761Z,95289.72
2022-08-17T14:19:27.610Z,95364.69
2022-08-17T14:21:58.889Z,95348.22
2022-08-17T14:24:29.101Z,95309.63
2022-08-17T14:26:57.924Z,95351.38
2022-08-17T14:29:29.698Z,95306.84
2022-08-17T14:31:58.796Z,95349.69
2022-08-17T14:34:26.863Z,95332.22
2022-08-17T14:36:56.456Z,95272.69
2022-08-17T14:39:24.230Z,95339.06
2022-08-17T14:41:53.013Z,95281.50
2022-08-17T14:44:20.825Z,95318.44
2022-08-17T14:46:50.482Z,95332.69
2022-08-17T14:49:20.655Z,95332.16
2022-08-17T14:51:48.564Z,95330.03
2022-08-17T14:54:33.052Z,95283.25
2022-08-17T14:57:32.969Z,95301.31
2022-08-17T14:59:55.512Z,95226.38
2022-08-17T15:02:29.443Z,95318.31
2022-08-17T15:05:01.412Z,95301.16
2022-08-17T15:07:30.527Z,95305.28
2022-08-17T15:10:01.607Z,95294.19
2022-08-17T15:12:34.258Z,95335.53
2022-08-17T15:15:04.863Z,95351.69
2022-08-17T15:17:44.982Z,95294.13
2022-08-17T15:20:16.046Z,95272.00
2022-08-17T15:22:45.839Z,95312.84
2022-08-17T15:25:15.221Z,95228.06
2022-08-17T15:27:43.129Z,95300.59
2022-08-17T15:30:12.654Z,95266.16
2022-08-17T15:32:50.879Z,95262.88
2022-08-17T15:35:27.084Z,95350.59
2022-08-17T15:37:56.912Z,95351.16
2022-08-17T15:40:26.093Z,95262.03
2022-08-17T15:42:59.099Z,95349.25
2022-08-17T15:45:28.223Z,95281.25
2022-08-17T15:47:56.003Z,95236.34
2022-08-17T15:50:23.700Z,95272.25
2022-08-17T15:52:56.811Z,95311.19
2022-08-17T15:55:27.135Z,95330.50
2022-08-17T15:57:55.017Z,95249.63
2022-08-17T16:00:23.893Z,95341.69
2022-08-17T16:03:45.876Z,95228.91
2022-08-17T16:05:41.075Z,95338.78
2022-08-17T16:08:10.932Z,95321.47
2022-08-17T16:10:40.320Z,95336.84
2022-08-17T16:13:17.822Z,95327.22
2022-08-17T16:15:51.092Z,95345.75
2022-08-17T16:18:28.223Z,95343.19
2022-08-17T16:20:56.069Z,95281.19
2022-08-17T16:23:23.995Z,95333.47
2022-08-17T16:25:54.406Z,95314.66
2022-08-17T16:28:35.922Z,95329.66
2022-08-17T16:31:05.840Z,95342.94
2022-08-17T16:33:37.546Z,95338.75
2022-08-17T16:36:06.171Z,95275.13
2022-08-17T16:38:33.962Z,95324.09
2022-08-17T16:41:03.131Z,95326.47
2022-08-17T16:43:31.218Z,95323.44
2022-08-17T16:46:00.735Z,95326.97
2022-08-17T16:48:29.139Z,95304.81
2022-08-17T16:51:02.913Z,95298.81
2022-08-17T16:53:32.416Z,95314.94
2022-08-17T16:56:00.180Z,95317.75
2022-08-17T16:58:30.136Z,95313.94
2022-08-17T17:00:59.399Z,95306.44
2022-08-17T17:03:29.654Z,95318.44
2022-08-17T17:06:07.987Z,95295.50
2022-08-17T17:08:42.071Z,95308.19
2022-08-17T17:11:14.853Z,95308.28
2022-08-17T17:13:47.795Z,95296.78
2022-08-17T17:16:21.537Z,95296.53
2022-08-17T17:19:04.568Z,95286.25
2022-08-17T17:21:42.456Z,95294.81
2022-08-17T17:24:15.176Z,95298.72
2022-08-17T17:27:07.418Z,95288.28
2022-08-17T17:29:48.518Z,95279.44
2022-08-17T17:32:21.848Z,95286.38
2022-08-17T17:34:54.960Z,95293.72
2022-08-17T17:37:28.636Z,95286.44
2022-08-17T17:40:00.954Z,95272.75
2022-08-17T17:42:33.079Z,95231.72
2022-08-17T17:45:08.429Z,95279.88
2022-08-17T17:47:37.251Z,95292.09
2022-08-17T17:50:07.194Z,95263.41
2022-08-17T17:52:42.904Z,95288.72
2022-08-17T17:55:23.774Z,95291.84
2022-08-17T17:58:01.913Z,95289.97
2022-08-17T18:00:39.254Z,95290.75
2022-08-17T18:03:24.916Z,95277.81
2022-08-17T18:06:09.753Z,95268.56
2022-08-17T18:08:52.783Z,95274.78
2022-08-17T18:11:41.383Z,95267.94
2022-08-17T18:14:22.934Z,95276.56
2022-08-17T18:16:55.795Z,95217.06
2022-08-17T18:19:26.807Z,95146.47
2022-08-17T18:22:03.519Z,95256.34
2022-08-17T18:24:36.458Z,95262.63
2022-08-17T18:27:18.934Z,95261.22
2022-08-17T18:29:48.595Z,95271.31
2022-08-17T18:32:29.313Z,95247.16
2022-08-17T18:34:59.489Z,95265.66
2022-08-17T18:37:37.388Z,95259.94
2022-08-17T18:40:41.994Z,95264.25
2022-08-17T18:43:13.620Z,95272.00
2022-08-17T18:45:46.437Z,95274.75
2022-08-17T18:48:27.177Z,95252.47
2022-08-17T18:50:57.855Z,95278.69
2022-08-17T18:53:43.705Z,95269.84
2022-08-17T18:56:24.030Z,95273.34
2022-08-17T18:58:57.572Z,95275.34
2022-08-17T19:01:41.941Z,95278.81
2022-08-17T19:04:33.949Z,95270.34
2022-08-17T19:07:09.617Z,95266.50
2022-08-17T19:09:41.671Z,95263.84
2022-08-17T19:12:15.416Z,95264.22
2022-08-17T19:14:44.663Z,95239.97
2022-08-17T19:17:21.442Z,95220.75
2022-08-17T19:19:57.569Z,95245.38
2022-08-17T19:22:31.065Z,95178.41
2022-08-17T19:25:10.385Z,95252.69
2022-08-17T19:27:49.953Z,95253.84
2022-08-17T19:30:20.257Z,95264.63
2022-08-17T19:32:48.237Z,95251.94
2022-08-17T19:35:20.211Z,95208.81
2022-08-17T19:37:59.521Z,95280.03
2022-08-17T19:40:52.208Z,95275.03
2022-08-17T19:43:29.762Z,95289.66
2022-08-17T19:46:08.391Z,95290.03
2022-08-17T19:48:47.292Z,95219.16
2022-08-17T19:51:24.132Z,95213.75
2022-08-17T19:54:07.703Z,95289.28
2022-08-17T19:56:45.444Z,95200.66
2022-08-17T19:59:21.783Z,95293.13
2022-08-17T20:01:53.849Z,95288.09
2022-08-17T20:04:34.414Z,95230.69
2022-08-17T20:07:09.104Z,95297.72
2022-08-17T20:09:40.519Z,95296.19
2022-08-17T20:12:12.163Z,95159.84
2022-08-17T20:14:51.694Z,95286.53
2022-08-17T20:17:24.713Z,95298.88
2022-08-17T20:20:02.512Z,95296.19
2022-08-17T20:22:52.035Z,95315.03
2022-08-17T20:25:30.398Z,95306.59
2022-08-17T20:28:05.844Z,95183.34
2022-08-17T20:30:38.407Z,95301.59
2022-08-17T20:33:12.470Z,95233.78
2022-08-17T20:36:02.125Z,95297.75
2022-08-17T20:38:42.248Z,95270.03
2022-08-17T20:41:16.656Z,95273.09
2022-08-17T20:43:52.244Z,95241.53
2022-08-17T20:46:30.371Z,95256.56
2022-08-17T20:49:00.507Z,95255.38
2022-08-17T20:51:32.933Z,95248.84
2022-08-17T20:54:36.551Z,95255.00
2022-08-17T20:57:06.151Z,95248.06
2022-08-17T20:59:59.697Z,95225.75
2022-08-17T21:02:29.483Z,95158.00
2022-08-17T21:05:35.556Z,95245.38
2022-08-17T21:08:14.756Z,95250.72
2022-08-17T21:10:46.826Z,95243.81
2022-08-17T21:13:50.438Z,95256.88
2022-08-17T21:16:42.466Z,95259.56
2022-08-17T21:20:08.244Z,95256.88
2022-08-17T21:22:43.974Z,95236.88
2022-08-17T21:25:25.430Z,95233.75
2022-08-17T21:28:03.806Z,95249.16
2022-08-17T21:30:53.660Z,95244.56
2022-08-17T21:33:25.927Z,95213.00
2022-08-17T21:36:16.166Z,95229.94
2022-08-17T21:38:57.782Z,95230.72
2022-08-17T21:41:29.492Z,95199.94
2022-08-17T21:44:06.047Z,95247.28
2022-08-17T21:46:39.930Z,95228.03
2022-08-17T21:49:13.943Z,95249.59
2022-08-17T21:51:45.710Z,95251.53
2022-08-17T21:54:28.756Z,95237.28
2022-08-17T21:56:56.595Z,95249.19
2022-08-17T21:59:27.793Z,95231.09
2022-08-17T22:02:00.869Z,95253.06
2022-08-17T22:04:31.807Z,95259.19
2022-08-17T22:07:01.793Z,95271.09
2022-08-17T22:09:32.078Z,95194.94
2022-08-17T22:12:03.103Z,95237.28
2022-08-17T22:14:52.301Z,95226.13
2022-08-17T22:17:26.178Z,95239.63
2022-08-17T22:19:56.819Z,95276.97
2022-08-17T22:22:35.190Z,95353.25
2022-08-17T22:25:05.731Z,95421.78
2022-08-17T22:27:50.016Z,95417.41
2022-08-17T22:30:26.003Z,95426.31
2022-08-17T22:32:57.499Z,95408.50
2022-08-17T22:35:35.856Z,95365.00
2022-08-17T22:38:32.566Z,95453.00
2022-08-17T22:41:26.228Z,95463.69
2022-08-17T22:43:57.422Z,95489.72
2022-08-17T22:46:26.175Z,95513.38
2022-08-17T22:49:00.390Z,95419.09
2022-08-17T22:51:31.362Z,95330.19
2022-08-17T22:54:20.632Z,95426.06
2022-08-17T22:57:18.665Z,95478.41
2022-08-17T22:59:49.338Z,95477.09
2022-08-17T23:02:24.059Z,95543.88
2022-08-17T23:04:55.683Z,95500.84
2022-08-17T23:07:23.616Z,95505.22
2022-08-17T23:09:53.960Z,95526.59
2022-08-17T23:12:26.365Z,95505.56
2022-08-17T23:15:00.736Z,95441.28
2022-08-17T23:17:33.910Z,95408.66
2022-08-17T23:20:08.590Z,95496.84
2022-08-17T23:22:38.282Z,95378.41
2022-08-17T23:25:28.137Z,95425.72
2022-08-17T23:27:57.425Z,95493.38
2022-08-17T23:30:28.583Z,95339.16
2022-08-17T23:32:56.875Z,95445.50
2022-08-17T23:35:39.903Z,95516.63
2022-08-17T23:38:10.092Z,95344.69
2022-08-17T23:40:39.528Z,95459.91
2022-08-17T23:43:23.732Z,95542.31
2022-08-17T23:45:53.741Z,95501.91
2022-08-17T23:48:28.619Z,95514.47
2022-08-17T23:51:55.206Z,95546.06
2022-08-17T23:54:27.809Z,95512.28
2022-08-17T23:56:55.609Z,95541.78
2022-08-17T23:59:24.442Z,95552.16
